• Join FlightAware (Why Join?)
  • Login
  • US Flag 
09:00AM EDT


 

Airport Tracker/Info


-or-


 

Live Flight TrackerFlight Track Log ✈ TAM3749 ✈ 09-Sep-2013 ✈ SBEG / MAO - SBGR / GRU

Flight Track Log - Related Links

Times and Time Zones

All times are in EDT time to prevent confusion due to time zone crossing. See the TAM3749 flight status page for this flight to view local times or setup timezone preferences in your user account.

Time Position Orientation Groundspeed Altitude Reporting Facility
EDT Latitude Longitude Course Direction KTS MPH feet Rate Location/Type
04:45PM -3.0390 -60.0310 91° East 163 188 1,100  Level FlightAware
04:45PM -3.0390 -60.0080 90° East 178 205 1,900 1,860 Climbing FlightAware
04:46PM -3.0380 -59.9920 86° East 180 207 2,600 2,040 Climbing FlightAware
04:46PM -3.0390 -59.9780 94° East 187 215 3,100 1,560 Climbing FlightAware
04:46PM -3.0410 -59.9720 108° East 197 227 3,200 900 Climbing FlightAware
04:46PM -3.0460 -59.9620 117° Southeast 210 242 3,400 1,200 Climbing FlightAware
04:46PM -3.0520 -59.9570 140° Southeast 220 253 3,600 1,500 Climbing FlightAware
04:47PM -3.0590 -59.9530 150° Southeast 231 266 3,800 1,680 Climbing FlightAware
04:47PM -3.0800 -59.9430 155° Southeast 255 293 4,400 2,400 Climbing FlightAware
04:47PM -3.1030 -59.9350 161° South 263 303 5,400 2,880 Climbing FlightAware
04:48PM -3.1270 -59.9240 155° Southeast 271 312 6,400 3,120 Climbing FlightAware
04:48PM -3.1540 -59.9110 154° Southeast 271 312 7,700 3,060 Climbing FlightAware
04:48PM -3.1770 -59.9000 154° Southeast 281 323 8,600 2,400 Climbing FlightAware
04:49PM -3.2010 -59.8890 155° Southeast 294 338 9,300 2,340 Climbing FlightAware
04:49PM -3.2470 -59.8670 154° Southeast 314 361 10,800 2,160 Climbing FlightAware
04:50PM -3.2970 -59.8430 154° Southeast 343 395 11,900 2,100 Climbing FlightAware
04:50PM -3.3440 -59.8210 155° Southeast 355 409 13,200 2,820 Climbing FlightAware
04:51PM -3.3980 -59.7960 155° Southeast 353 406 15,100 3,720 Climbing FlightAware
04:52PM -3.4490 -59.7720 155° Southeast 322 371 17,700 3,240 Climbing FlightAware
04:52PM -3.4990 -59.7480 154° Southeast 331 381 19,000 2,040 Climbing FlightAware
04:53PM -3.5490 -59.7240 154° Southeast 342 394 20,200 1,500 Climbing FlightAware
04:53PM -3.5970 -59.7020 155° Southeast 369 425 20,700 1,080 Climbing FlightAware
04:54PM -3.6530 -59.6760 155° Southeast 391 450 21,400 1,380 Climbing FlightAware
04:54PM -3.7160 -59.6460 155° Southeast 405 466 22,400 1,560 Climbing FlightAware
04:55PM -3.7760 -59.6180 155° Southeast 418 481 23,300 1,620 Climbing FlightAware
04:56PM -3.8350 -59.5900 155° Southeast 423 487 24,300 1,620 Climbing FlightAware
04:56PM -3.8970 -59.5610 155° Southeast 430 495 25,200 1,620 Climbing FlightAware
04:57PM -3.9640 -59.5290 155° Southeast 434 499 26,300 1,620 Climbing FlightAware
04:57PM -4.0230 -59.5010 155° Southeast 439 505 27,100 1,560 Climbing FlightAware
04:58PM -4.0900 -59.4690 155° Southeast 443 510 28,100 1,020 Climbing FlightAware
04:58PM -4.1430 -59.4440 155° Southeast 443 510 28,300 120 Climbing FlightAware
04:59PM -4.1990 -59.4160 153° Southeast 443 510 28,300  Level FlightAware
05:00PM -4.2560 -59.3880 154° Southeast 443 510 28,300  Level FlightAware
05:00PM -4.3120 -59.3610 154° Southeast 443 510 28,300  Level FlightAware
05:01PM -4.3700 -59.3330 154° Southeast 443 510 28,300  Level FlightAware
05:01PM -4.4260 -59.3050 154° Southeast 443 510 28,300 60 Level FlightAware
05:04PM -4.6165 -59.1860 148° Southeast  Level Estimated
05:05PM -4.7110 -59.1270 148° Southeast  Level Estimated
05:06PM -4.8054 -59.0679 148° Southeast  Level Estimated
05:07PM -4.8999 -59.0089 148° Southeast  Level Estimated
05:08PM -4.9943 -58.9498 148° Southeast  Level Estimated
05:09PM -5.0888 -58.8907 148° Southeast  Level Estimated
05:10PM -5.1832 -58.8316 148° Southeast  Level Estimated
05:11PM -5.2776 -58.7725 148° Southeast  Level Estimated
05:12PM -5.3721 -58.7133 148° Southeast  Level Estimated
05:13PM -5.4665 -58.6542 148° Southeast  Level Estimated
05:14PM -5.5609 -58.5950 148° Southeast  Level Estimated
05:15PM -5.6553 -58.5358 148° Southeast  Level Estimated
05:16PM -5.7497 -58.4766 148° Southeast  Level Estimated
05:17PM -5.8441 -58.4173 148° Southeast  Level Estimated
05:18PM -5.9385 -58.3581 148° Southeast  Level Estimated
05:19PM -6.0329 -58.2988 148° Southeast  Level Estimated
05:20PM -6.1273 -58.2395 148° Southeast  Level Estimated
05:21PM -6.2216 -58.1802 148° Southeast  Level Estimated
05:22PM -6.3160 -58.1208 148° Southeast  Level Estimated
05:23PM -6.4103 -58.0615 148° Southeast  Level Estimated
05:24PM -6.5047 -58.0021 148° Southeast  Level Estimated
05:25PM -6.5990 -57.9427 148° Southeast  Level Estimated
05:26PM -6.6934 -57.8832 148° Southeast  Level Estimated
05:27PM -6.7877 -57.8238 148° Southeast  Level Estimated
05:28PM -6.8820 -57.7643 148° Southeast  Level Estimated
05:29PM -6.9763 -57.7048 148° Southeast  Level Estimated
05:30PM -7.0707 -57.6453 148° Southeast  Level Estimated
05:31PM -7.1649 -57.5857 148° Southeast  Level Estimated
05:32PM -7.2592 -57.5262 148° Southeast  Level Estimated
05:33PM -7.3535 -57.4666 148° Southeast  Level Estimated
05:34PM -7.4478 -57.4069 148° Southeast  Level Estimated
05:35PM -7.5421 -57.3473 148° Southeast  Level Estimated
05:36PM -7.6363 -57.2876 148° Southeast  Level Estimated
05:37PM -7.7306 -57.2279 148° Southeast  Level Estimated
05:38PM -7.8248 -57.1682 148° Southeast  Level Estimated
05:39PM -7.9191 -57.1084 148° Southeast  Level Estimated
05:40PM -8.0133 -57.0486 148° Southeast  Level Estimated
05:41PM -8.1075 -56.9888 148° Southeast  Level Estimated
05:42PM -8.2017 -56.9290 148° Southeast  Level Estimated
05:43PM -8.2959 -56.8691 148° Southeast  Level Estimated
05:44PM -8.3901 -56.8092 148° Southeast  Level Estimated
05:45PM -8.4843 -56.7493 148° Southeast  Level Estimated
05:46PM -8.5785 -56.6893 148° Southeast  Level Estimated
05:47PM -8.6726 -56.6293 148° Southeast  Level Estimated
05:48PM -8.7668 -56.5693 148° Southeast  Level Estimated
05:49PM -8.8609 -56.5093 148° Southeast  Level Estimated
05:50PM -8.9551 -56.4492 148° Southeast  Level Estimated
05:51PM -9.0492 -56.3891 148° Southeast  Level Estimated
05:52PM -9.1433 -56.3290 148° Southeast  Level Estimated
05:53PM -9.2374 -56.2688 148° Southeast  Level Estimated
05:54PM -9.3315 -56.2086 148° Southeast  Level Estimated
05:55PM -9.4256 -56.1483 148° Southeast  Level Estimated
05:56PM -9.5197 -56.0881 148° Southeast  Level Estimated
05:57PM -9.6138 -56.0278 148° Southeast  Level Estimated
05:58PM -9.7078 -55.9674 148° Southeast  Level Estimated
05:59PM -9.8019 -55.9071 148° Southeast  Level Estimated
06:00PM -9.8959 -55.8467 148° Southeast  Level Estimated
06:01PM -9.9899 -55.7862 148° Southeast  Level Estimated
06:02PM -10.0839 -55.7258 148° Southeast  Level Estimated
06:03PM -10.1779 -55.6653 148° Southeast  Level Estimated
06:04PM -10.2719 -55.6047 148° Southeast  Level Estimated
06:05PM -10.3659 -55.5441 148° Southeast  Level Estimated
06:06PM -10.4599 -55.4835 148° Southeast  Level Estimated
06:07PM -10.5538 -55.4229 148° Southeast  Level Estimated
06:08PM -10.6478 -55.3622 148° Southeast  Level Estimated
06:09PM -10.7417 -55.3014 148° Southeast  Level Estimated
06:10PM -10.8356 -55.2407 148° Southeast  Level Estimated
06:11PM -10.9295 -55.1799 148° Southeast  Level Estimated
06:12PM -11.0234 -55.1190 148° Southeast  Level Estimated
06:13PM -11.1173 -55.0582 148° Southeast  Level Estimated
06:14PM -11.2112 -54.9972 148° Southeast  Level Estimated
06:15PM -11.3050 -54.9363 148° Southeast  Level Estimated
06:16PM -11.3989 -54.8753 147° Southeast  Level Estimated
06:17PM -11.4927 -54.8143 147° Southeast  Level Estimated
06:18PM -11.5866 -54.7532 147° Southeast  Level Estimated
06:19PM -11.6804 -54.6921 147° Southeast  Level Estimated
06:20PM -11.7742 -54.6309 147° Southeast  Level Estimated
06:21PM -11.8680 -54.5697 147° Southeast  Level Estimated
06:22PM -11.9617 -54.5084 147° Southeast  Level Estimated
06:23PM -12.0555 -54.4472 147° Southeast  Level Estimated
06:24PM -12.1492 -54.3858 147° Southeast  Level Estimated
06:25PM -12.2430 -54.3245 147° Southeast  Level Estimated
06:26PM -12.3367 -54.2630 147° Southeast  Level Estimated
06:27PM -12.4304 -54.2016 147° Southeast  Level Estimated
06:28PM -12.5241 -54.1401 147° Southeast  Level Estimated
06:29PM -12.6177 -54.0785 147° Southeast  Level Estimated
06:30PM -12.7114 -54.0169 147° Southeast  Level Estimated
06:31PM -12.8050 -53.9553 147° Southeast  Level Estimated
06:32PM -12.8987 -53.8936 147° Southeast  Level Estimated
06:33PM -12.9923 -53.8318 147° Southeast  Level Estimated
06:34PM -13.0859 -53.7701 147° Southeast  Level Estimated
06:35PM -13.1795 -53.7082 147° Southeast  Level Estimated
06:36PM -13.2731 -53.6464 147° Southeast  Level Estimated
06:37PM -13.3666 -53.5844 147° Southeast  Level Estimated
06:38PM -13.4602 -53.5225 147° Southeast  Level Estimated
06:39PM -13.5537 -53.4605 147° Southeast  Level Estimated
06:40PM -13.6472 -53.3984 147° Southeast  Level Estimated
06:41PM -13.7407 -53.3363 147° Southeast  Level Estimated
06:42PM -13.8342 -53.2741 147° Southeast  Level Estimated
06:43PM -13.9277 -53.2119 147° Southeast  Level Estimated
06:44PM -14.0211 -53.1496 147° Southeast  Level Estimated
06:45PM -14.1145 -53.0873 147° Southeast  Level Estimated
06:46PM -14.2080 -53.0249 147° Southeast  Level Estimated
06:47PM -14.3014 -52.9625 147° Southeast  Level Estimated
06:48PM -14.3947 -52.9000 147° Southeast  Level Estimated
06:49PM -14.4881 -52.8375 147° Southeast  Level Estimated
06:50PM -14.5815 -52.7749 147° Southeast  Level Estimated
06:51PM -14.6748 -52.7123 147° Southeast  Level Estimated
06:52PM -14.7681 -52.6496 147° Southeast  Level Estimated
06:53PM -14.8614 -52.5869 147° Southeast  Level Estimated
06:54PM -14.9547 -52.5241 147° Southeast  Level Estimated
06:55PM -15.0480 -52.4612 147° Southeast  Level Estimated
06:56PM -15.1412 -52.3983 147° Southeast  Level Estimated
06:57PM -15.2345 -52.3354 147° Southeast  Level Estimated
06:58PM -15.3277 -52.2724 147° Southeast  Level Estimated
06:59PM -15.4209 -52.2093 147° Southeast  Level Estimated
07:00PM -15.5141 -52.1462 147° Southeast  Level Estimated
07:00PM -18.0750 -50.6230 147° Southeast 510 587 41,000  Level FlightAware
07:01PM -15.6072 -52.0830 147° Southeast  Level Estimated
07:01PM -18.1350 -50.5750 143° Southeast 511 588 41,000  Level FlightAware
07:01PM -18.1990 -50.5240 143° Southeast 510 587 41,000  Level FlightAware
07:02PM -18.2660 -50.4700 143° Southeast 507 583 41,000  Level FlightAware
07:03PM -18.3300 -50.4180 142° Southeast 505 581 41,000  Level FlightAware
07:03PM -18.3930 -50.3660 142° Southeast 505 581 41,000  Level FlightAware
07:04PM -18.4490 -50.3200 142° Southeast 505 581 41,000  Level FlightAware
07:04PM -18.5060 -50.2740 143° Southeast 505 581 41,000  Level FlightAware
07:05PM -18.5620 -50.2270 141° Southeast 505 581 41,000  Level FlightAware
07:06PM -18.6660 -50.1430 143° Southeast 502 578 41,000  Level FlightAware
07:06PM -18.7290 -50.0910 142° Southeast 502 578 41,000  Level FlightAware
07:07PM -18.7860 -50.0450 143° Southeast 501 577 41,000  Level FlightAware
07:07PM -18.8380 -50.0010 141° Southeast 500 575 41,000  Level FlightAware
07:08PM -18.9390 -49.9190 142° Southeast 498 573 41,000  Level FlightAware
07:09PM -19.0040 -49.8650 142° Southeast 495 570 41,000  Level FlightAware
07:09PM -19.0670 -49.8130 142° Southeast 494 568 41,000  Level FlightAware
07:10PM -19.1250 -49.7650 142° Southeast 495 570 41,000  Level FlightAware
07:10PM -19.1910 -49.7100 142° Southeast 497 572 41,000  Level FlightAware
07:11PM -19.2530 -49.6590 142° Southeast 497 572 41,000  Level FlightAware
07:12PM -19.3290 -49.5960 142° Southeast 497 572 41,000  Level FlightAware
07:12PM -19.3980 -49.5390 142° Southeast 497 572 41,000  Level FlightAware
07:13PM -19.4570 -49.4900 142° Southeast 496 571 41,000  Level FlightAware
07:13PM -19.5210 -49.4370 142° Southeast 496 571 41,000  Level FlightAware
07:14PM -19.5830 -49.3850 142° Southeast 498 573 41,000  Level FlightAware
07:15PM -19.6510 -49.3280 142° Southeast 498 573 41,000  Level FlightAware
07:15PM -19.7100 -49.2790 142° Southeast 496 571 41,000  Level FlightAware
07:16PM -19.7780 -49.2220 142° Southeast 496 571 41,000  Level FlightAware
07:16PM -19.8430 -49.1680 142° Southeast 496 571 41,000  Level FlightAware
07:17PM -19.9000 -49.1200 142° Southeast 496 571 41,000  Level FlightAware
07:18PM -19.9650 -49.0660 142° Southeast 497 572 41,000  Level FlightAware
07:18PM -20.0310 -49.0110 142° Southeast 497 572 41,000  Level FlightAware
07:19PM -20.0930 -48.9590 142° Southeast 497 572 41,000  Level FlightAware
07:19PM -20.1580 -48.9040 142° Southeast 496 571 41,000  Level FlightAware
07:20PM -20.2220 -48.8500 142° Southeast 498 573 41,000  Level FlightAware
07:20PM -20.2800 -48.8010 142° Southeast 498 573 41,000  Level FlightAware
07:21PM -20.3450 -48.7470 142° Southeast 498 573 41,000  Level FlightAware
07:22PM -20.4070 -48.6940 141° Southeast 498 573 41,000  Level FlightAware
07:22PM -20.4670 -48.6430 141° Southeast 496 571 41,000  Level FlightAware
07:23PM -20.5330 -48.5880 142° Southeast 496 571 41,000  Level FlightAware
07:23PM -20.5970 -48.5330 141° Southeast 494 568 41,000  Level FlightAware
07:24PM -20.6620 -48.4790 142° Southeast 493 567 41,000  Level FlightAware
07:25PM -20.7210 -48.4280 141° Southeast 494 568 41,000  Level FlightAware
07:25PM -20.7870 -48.3730 142° Southeast 495 570 41,000  Level FlightAware
07:26PM -20.8500 -48.3190 141° Southeast 496 571 41,000  Level FlightAware
07:26PM -20.9090 -48.2690 142° Southeast 498 573 41,000  Level FlightAware
07:27PM -20.9750 -48.2130 142° Southeast 498 573 41,000  Level FlightAware
07:28PM -21.0400 -48.1570 141° Southeast 497 572 41,000  Level FlightAware
07:28PM -21.1040 -48.1020 141° Southeast 497 572 41,000  Level FlightAware
07:29PM -21.1620 -48.0530 142° Southeast 499 574 41,000  Level FlightAware
07:29PM -21.2260 -47.9980 141° Southeast 499 574 41,000  Level FlightAware
07:30PM -21.2890 -47.9440 141° Southeast 498 573 41,000  Level FlightAware
07:30PM -21.3490 -47.8920 141° Southeast 497 572 41,000 -600 Level FlightAware
07:31PM -21.4160 -47.8360 142° Southeast 501 577 40,300 -1,680 Descending FlightAware
07:32PM -21.4790 -47.7810 141° Southeast 501 577 39,000 -2,280 Descending FlightAware
07:32PM -21.5460 -47.7240 142° Southeast 502 578 37,600 -2,400 Descending FlightAware
07:33PM -21.6000 -47.6770 141° Southeast 501 577 36,400 -2,220 Descending FlightAware
07:33PM -21.6680 -47.6180 141° Southeast 494 568 35,100 -1,920 Descending FlightAware
07:34PM -21.7340 -47.5610 141° Southeast 481 554 34,000 -1,800 Descending FlightAware
07:34PM -21.7890 -47.5130 141° Southeast 472 543 33,000 -1,800 Descending FlightAware
07:35PM -21.8500 -47.4610 142° Southeast 461 531 32,000 -1,680 Descending FlightAware
07:36PM -21.9030 -47.4150 141° Southeast 453 521 31,100 -1,680 Descending FlightAware
07:36PM -21.9690 -47.3620 143° Southeast 439 505 30,000 -1,620 Descending FlightAware
07:37PM -22.0250 -47.3280 151° Southeast 427 491 29,200 -1,620 Descending FlightAware
07:37PM -22.0900 -47.3000 158° South 416 479 28,200 -1,740 Descending FlightAware
07:38PM -22.1590 -47.2720 159° South 408 470 27,000 -1,740 Descending FlightAware
07:39PM -22.2250 -47.2450 159° South 400 460 26,000 -1,680 Descending FlightAware
07:39PM -22.2870 -47.2200 160° South 391 450 25,000 -1,680 Descending FlightAware
07:40PM -22.3400 -47.1980 159° South 384 442 24,100 -1,620 Descending FlightAware
07:40PM -22.4000 -47.1730 159° South 376 433 23,200 -1,620 Descending FlightAware
07:41PM -22.4580 -47.1480 158° South 370 426 22,200 -1,620 Descending FlightAware
07:42PM -22.5150 -47.1240 159° South 363 418 21,300 -1,500 Descending FlightAware
07:42PM -22.5700 -47.1000 158° South 357 411 20,400 -1,560 Descending FlightAware
07:43PM -22.6160 -47.0810 159° South 352 405 19,600 -1,680 Descending FlightAware
07:43PM -22.6750 -47.0560 159° South 347 399 18,500 -1,680 Descending FlightAware
07:44PM -22.7260 -47.0350 159° South 343 395 17,600 -1,560 Descending FlightAware
07:45PM -22.7790 -47.0130 159° South 340 391 16,700 -1,500 Descending FlightAware
07:45PM -22.8310 -46.9910 159° South 339 390 15,800 -1,620 Descending FlightAware
07:46PM -22.8790 -46.9710 159° South 335 386 14,900 -1,680 Descending FlightAware
07:46PM -22.9340 -46.9480 159° South 338 389 13,900 -1,680 Descending FlightAware
07:47PM -22.9810 -46.9280 159° South 335 386 13,000 -1,680 Descending FlightAware
07:47PM -23.0320 -46.9060 158° South 332 382 12,000 -1,380 Descending FlightAware
07:48PM -23.0850 -46.8840 159° South 290 334 11,300 -960 Descending FlightAware
07:49PM -23.1210 -46.8690 159° South 253 291 10,900 -1,080 Descending FlightAware
07:49PM -23.1590 -46.8530 159° South 238 274 10,100 -1,440 Descending FlightAware
07:49PM -23.1760 -46.8460 159° South 236 272 9,700 -1,380 Descending FlightAware
07:50PM -23.1940 -46.8380 158° South 233 268 9,300 -1,440 Descending FlightAware
07:50PM -23.2060 -46.8330 159° South 232 267 9,000 -1,320 Descending FlightAware
07:50PM -23.2280 -46.8240 159° South 227 261 8,600 -1,200 Descending FlightAware
07:51PM -23.2480 -46.8150 158° South 232 267 8,200 -1,140 Descending FlightAware
07:51PM -23.2720 -46.8050 159° South 234 269 7,800 -1,020 Descending FlightAware
07:51PM -23.2840 -46.8000 159° South 233 268 7,600 -720 Descending FlightAware
07:52PM -23.3080 -46.7900 159° South 224 258 7,400 -420 Descending FlightAware
07:52PM -23.3270 -46.7820 159° South 219 252 7,300 -420 Descending FlightAware
07:52PM -23.3390 -46.7770 159° South 219 252 7,200 -600 Descending FlightAware
07:53PM -23.3590 -46.7680 158° South 219 252 7,000 -360 Descending FlightAware
07:53PM -23.3710 -46.7630 159° South 214 246 7,000 -540 Level FlightAware
07:53PM -23.3790 -46.7560 141° Southeast 211 243 6,800 -1,080 Descending FlightAware
07:53PM -23.3940 -46.7430 142° Southeast 214 246 6,500 -1,440 Descending FlightAware
07:54PM -23.4080 -46.7290 137° Southeast 224 258 5,900 -1,260 Descending FlightAware
07:54PM -23.4270 -46.7110 139° Southeast 211 243 5,600 -960 Descending FlightAware
07:54PM -23.4420 -46.6980 142° Southeast 198 228 5,200 -1,080 Descending FlightAware
07:54PM -23.4470 -46.6920 132° Southeast 195 224 5,100 -1,020 Descending FlightAware
07:55PM -23.4490 -46.6890 126° Southeast 194 223 5,000 -540 Descending FlightAware
07:55PM -23.4520 -46.6830 119° Southeast 187 215 5,000 -300 Level FlightAware
07:55PM -23.4570 -46.6710 114° Southeast 177 204 4,900 -540 Descending FlightAware
07:55PM -23.4640 -46.6550 116° Southeast 161 185 4,700 -720 Descending FlightAware
07:56PM -23.4710 -46.6390 116° Southeast 140 161 4,400 -540 Descending FlightAware
07:56PM -23.4740 -46.6320 115° Southeast 134 154 4,400  Level FlightAware
07:56PM -23.4750 -46.6270 102° East 131 151 4,400  Level FlightAware
07:56PM -23.4750 -46.6240 90° East 133 153 4,400 -300 Level FlightAware
07:56PM -23.4730 -46.6160 75° East 136 157 4,300 -300 Descending FlightAware
07:57PM -23.4690 -46.6000 75° East 134 154 4,200 -480 Descending FlightAware
07:57PM -23.4660 -46.5890 73° East 138 159 4,000 -780 Descending FlightAware
07:57PM -23.4630 -46.5780 73° East 137 158 3,800 -900 Descending FlightAware
07:58PM -23.4600 -46.5650 76° East 140 161 3,500 -720 Descending FlightAware
07:58PM -23.4580 -46.5560 76° East 139 160 3,400 -720 Descending FlightAware
07:58PM -23.4540 -46.5420 73° East 140 161 3,100 -840 Descending FlightAware
07:59PM -23.4490 -46.5260 71° East 138 159 2,800 -900 Descending FlightAware
07:59PM -23.4430 -46.5030 74° East 141 162 2,400 -780 Descending FlightAware
07:59PM -23.4400 -46.4930 72° East 141 162 2,300 -540 Descending FlightAware
08:00PM -23.4370 -46.4810 75° East 139 160 2,100 -720 Descending FlightAware
08:02PM -23.4321 -46.4695 65° Northeast  Level Estimated
08:03PM -23.4321 -46.4695 350° North  Level Estimated
08:04PM -23.4321 -46.4695 350° North  Level Estimated
08:05PM -23.4321 -46.4695 350° North  Level Estimated
08:06PM -23.4321 -46.4695 350° North  Level Estimated
08:07PM -23.4321 -46.4695 350° North  Level Estimated
08:08PM -23.4321 -46.4695 350° North  Level Estimated
08:09PM -23.4321 -46.4695 350° North  Level Estimated
08:10PM -23.4321 -46.4695 350° North  Level Estimated
08:11PM -23.4321 -46.4695 350° North  Level Estimated
08:12PM -23.4321 -46.4695 350° North  Level Estimated
08:13PM -23.4321 -46.4695 350° North  Level Estimated
08:14PM -23.4321 -46.4695 350° North  Level Estimated
08:15PM -23.4321 -46.4695 350° North  Level Estimated
08:16PM -23.4321 -46.4695 350° North  Level Estimated
08:17PM -23.4321 -46.4695 350° North  Level Estimated
08:18PM -23.4321 -46.4695 350° North  Level Estimated
08:19PM -23.4321 -46.4695 350° North  Level Estimated
08:20PM -23.4321 -46.4695 350° North  Level Estimated
08:21PM -23.4321 -46.4695 350° North  Level Estimated
08:22PM -23.4321 -46.4695 350° North  Level Estimated
08:23PM -23.4321 -46.4695 350° North  Level Estimated
08:24PM -23.4321 -46.4695 350° North  Level Estimated
08:25PM -23.4321 -46.4695 350° North  Level Estimated
08:26PM -23.4321 -46.4695 350° North  Level Estimated
08:27PM -23.4321 -46.4695 350° North  Level Estimated
08:28PM -23.4321 -46.4695 350° North  Level Estimated
08:29PM -23.4321 -46.4695 350° North  Level Estimated
08:30PM -23.4321 -46.4695 350° North  Level Estimated
08:31PM -23.4321 -46.4695 350° North  Level Estimated
08:32PM -23.4321 -46.4695 350° North  Level Estimated
08:33PM -23.4321 -46.4695 350° North  Level Estimated
08:34PM -23.4321 -46.4695 350° North  Level Estimated
08:35PM -23.4321 -46.4695 350° North  Level Estimated
08:36PM -23.4321 -46.4695 350° North  Level Estimated
08:37PM -23.4321 -46.4695 350° North  Level Estimated
08:38PM -23.4321 -46.4695 350° North  Level Estimated
08:39PM -23.4321 -46.4695 350° North  Level Estimated
08:39PM -23.4310 -46.4870 350° North  Level FlightAware
08:41PM -23.4321 -46.4695 94° East  Level Estimated
08:42PM -23.4321 -46.4695 350° North  Level Estimated
08:43PM -23.4321 -46.4695 350° North  Level Estimated
08:44PM -23.4321 -46.4695 350° North  Level Estimated
08:45PM -23.4321 -46.4695 350° North  Level Estimated
08:46PM -23.4321 -46.4695 350° North  Level Estimated
08:47PM -23.4321 -46.4695 350° North  Level Estimated
08:48PM -23.4321 -46.4695 350° North  Level Estimated